Carter Lake, IA

11:11 AM CST on February 11, 2016 (GMT -0600)
CarterLake.org | | Change Station
CLOSE
Current Station
Personal Weather Station
Location: Carter Lake, IA
Elevation: 980 ft
Nearby Weather Stations

Elev 980 ft 41.29 °N, 95.92 °W | Updated 1 second ago

Overcast
Overcast
19.9 °F
Feels Like 20 °F
N
1.7
Wind Variable Wind from SSE
Gusts 3.5 mph

Today
High -- | Low -- °F
--% Chance of Precip.
Yesterday
High -- | Low -- °F
Precip. -- in
Pressure 30.37 in
Visibility 10.0 miles
Clouds Overcast 3300 ft
Windchill 20 °F
Dew Point 6 °F
Humidity 54%
Rainfall 0.00 in
Snow Depth Not available.
7:24 AM 5:52 PM
Waxing Crescent, 13% visible
METAR KOMA 111652Z 14005KT 10SM OVC033 M08/M14 A3032 RMK AO2 SLP283 T10781144
Pressure 30.37 in
Visibility 10.0 miles
Clouds Overcast 3300 ft
Windchill 20 °F
Dew Point 6 °F
Humidity 54%
Rainfall 0.00 in
Snow Depth Not available.
7:24 AM 5:52 PM
Waxing Crescent, 13% visible
METAR KOMA 111652Z 14005KT 10SM OVC033 M08/M14 A3032 RMK AO2 SLP283 T10781144

10-Day Weather Forecast

Almanac

Astronomy

Feb. 11, 2016 Rise Set
Actual Time
Civil Twilight
Nautical Twilight
Astronomical Twilight
Moon
Length of Visible Light
Length of Day
Tomorrow will be .
, % of the Moon is Illuminated

Today's Extremes

State Highs State Lows

Community

WunderPhotos

Upload Photos

1,892,104 photos uploaded!

WunderBlog® & News

Nearby

Air Quality

  Air Quality AQ Index Pollutant
Not available.

Snow Depth

Station Depth Elevation

Earthquake Activity

City Distance Mag. Time & Date
Minimum magnitude displayed is 2.5.

Coastal Water Temperatures

Place Temperature

Stations

Nearby Weather Stations

Station Location Temp. Windchill Dew Point Humidity Wind Precip. Elev Updated Type
                   

Watches & Warnings

There are currently no watches in effect.